Time;durP1;ratioP1;P1;durP2;ratioP2;P2;SDS_P1;SDS_P2;PMS_P1;PMS_P2;Temp;Humidity;BMP_temperature;BMP_pressure;BME280_temperature;BME280_humidity;BME280_pressure;Samples;Min_cycle;Max_cycle;Signal;HPM_P1;HPM_P2
2024/01/26 00:02:08;;;;;;;13.50;7.90;;;;;;;1.68;100.00;99306.62;135739;1273;22514;-80
2024/01/26 00:05:11;;;;;;;10.30;6.90;;;;;;;1.69;100.00;99313.91;135601;1273;22638;-82
2024/01/26 00:08:13;;;;;;;10.10;6.70;;;;;;;1.70;100.00;99317.23;136663;1273;22530;-83
2024/01/26 00:11:16;;;;;;;12.20;6.50;;;;;;;1.70;100.00;99321.85;136046;1274;25948;-82
2024/01/26 00:14:18;;;;;;;14.20;6.20;;;;;;;1.70;100.00;99319.98;136770;1273;22801;-85
2024/01/26 00:17:20;;;;;;;10.20;5.20;;;;;;;1.71;100.00;99323.42;137280;1273;22918;-83
2024/01/26 00:20:23;;;;;;;9.70;5.40;;;;;;;1.69;100.00;99325.23;136155;1274;22543;-84
2024/01/26 00:23:25;;;;;;;9.80;5.20;;;;;;;1.68;100.00;99328.25;136322;1273;22564;-83
2024/01/26 00:26:28;;;;;;;9.20;5.30;;;;;;;1.67;100.00;99329.55;137076;1273;22529;-82
2024/01/26 00:29:30;;;;;;;13.20;6.50;;;;;;;1.68;100.00;99328.05;135711;1273;22563;-83
2024/01/26 00:32:33;;;;;;;9.90;5.40;;;;;;;1.67;100.00;99334.19;135712;1273;22543;-84
2024/01/26 00:35:35;;;;;;;7.60;4.40;;;;;;;1.66;100.00;99339.45;135663;1273;22545;-83
2024/01/26 00:38:38;;;;;;;7.00;4.90;;;;;;;1.63;100.00;99340.00;135615;1273;24227;-84
2024/01/26 00:41:41;;;;;;;4.80;4.00;;;;;;;1.63;100.00;99343.95;135689;1273;25420;-84
2024/01/26 00:44:43;;;;;;;7.90;4.10;;;;;;;1.64;100.00;99349.95;135677;1273;22554;-85
2024/01/26 00:47:46;;;;;;;8.10;4.50;;;;;;;1.64;100.00;99352.39;135697;1273;22547;-82
2024/01/26 00:50:50;;;;;;;8.10;5.20;;;;;;;2.06;100.00;99355.16;135651;1273;22654;-85
2024/01/26 00:53:52;;;;;;;6.80;4.50;;;;;;;3.96;100.00;99351.77;135677;1273;22480;-86
2024/01/26 00:56:55;;;;;;;8.50;3.70;;;;;;;4.96;100.00;99354.73;135658;1273;22570;-87
2024/01/26 00:59:59;;;;;;;8.80;3.10;;;;;;;5.35;100.00;99354.64;135665;1273;22562;-86
2024/01/26 01:03:01;;;;;;;5.90;3.20;;;;;;;5.67;100.00;99351.40;135646;1270;22527;-82
2024/01/26 01:06:04;;;;;;;3.80;2.90;;;;;;;4.57;100.00;99354.59;135778;1273;22542;-85
2024/01/26 01:09:07;;;;;;;6.90;3.70;;;;;;;3.61;100.00;99358.95;135774;1273;22560;-84
2024/01/26 01:12:09;;;;;;;5.50;2.90;;;;;;;2.99;100.00;99359.73;135722;1273;22676;-86
2024/01/26 01:15:12;;;;;;;6.60;3.60;;;;;;;2.60;100.00;99361.98;135705;1273;22578;-84
2024/01/26 01:18:15;;;;;;;4.60;3.30;;;;;;;2.31;100.00;99374.21;135665;1273;22533;-84
2024/01/26 01:21:17;;;;;;;6.10;3.40;;;;;;;2.11;100.00;99381.39;135704;1273;25926;-85
2024/01/26 01:24:20;;;;;;;6.90;3.30;;;;;;;2.02;100.00;99383.81;135713;1273;22972;-82
2024/01/26 01:27:22;;;;;;;7.90;3.80;;;;;;;1.97;100.00;99390.12;135682;1274;24289;-84
2024/01/26 01:30:25;;;;;;;6.10;3.60;;;;;;;1.92;100.00;99392.77;135705;1273;25495;-84
2024/01/26 01:33:27;;;;;;;10.40;4.20;;;;;;;1.89;100.00;99400.67;135738;1263;22572;-85
2024/01/26 01:36:30;;;;;;;8.30;4.00;;;;;;;1.86;100.00;99403.06;135688;1273;22547;-83
2024/01/26 01:39:32;;;;;;;7.10;4.10;;;;;;;1.82;100.00;99404.90;135621;1273;22545;-84
2024/01/26 01:42:34;;;;;;;4.40;3.20;;;;;;;1.79;100.00;99408.50;135696;1274;22531;-86
2024/01/26 01:45:37;;;;;;;8.00;3.60;;;;;;;1.77;100.00;99404.98;135640;1273;22495;-85
2024/01/26 01:48:39;;;;;;;8.40;3.70;;;;;;;1.77;100.00;99405.45;135690;1273;22640;-84
2024/01/26 01:51:42;;;;;;;6.30;4.20;;;;;;;1.76;100.00;99400.98;135667;1273;22536;-85
2024/01/26 01:54:44;;;;;;;6.70;3.00;;;;;;;1.76;100.00;99398.20;135767;1273;22589;-82
2024/01/26 01:57:47;;;;;;;6.50;3.30;;;;;;;1.75;100.00;99398.30;135916;1266;23601;-84
2024/01/26 02:00:50;;;;;;;7.50;3.20;;;;;;;1.74;100.00;99400.52;135691;1273;22556;-83
2024/01/26 02:03:52;;;;;;;6.60;3.40;;;;;;;1.74;100.00;99399.11;135681;1273;22546;-84
2024/01/26 02:06:55;;;;;;;10.50;3.20;;;;;;;1.75;100.00;99399.19;135655;1273;22533;-82
2024/01/26 02:09:57;;;;;;;6.50;2.90;;;;;;;1.75;100.00;99399.20;135658;1273;24633;-85
2024/01/26 02:12:59;;;;;;;5.20;3.10;;;;;;;1.76;100.00;99392.39;135620;1273;22541;-84
2024/01/26 02:16:02;;;;;;;9.10;3.10;;;;;;;1.76;100.00;99399.61;135686;1273;24148;-83
2024/01/26 02:19:04;;;;;;;6.00;3.20;;;;;;;1.76;100.00;99398.89;135691;1274;22543;-83
2024/01/26 02:22:07;;;;;;;6.60;3.00;;;;;;;1.76;100.00;99401.13;135669;1273;22546;-82
2024/01/26 02:25:09;;;;;;;7.40;3.10;;;;;;;1.74;100.00;99405.82;135616;1273;22572;-84
2024/01/26 02:28:12;;;;;;;6.30;3.10;;;;;;;1.73;100.00;99408.46;135655;1273;22579;-84
2024/01/26 02:31:14;;;;;;;8.40;3.40;;;;;;;1.72;100.00;99409.62;135668;1273;22540;-83
2024/01/26 02:34:17;;;;;;;5.50;3.10;;;;;;;1.73;100.00;99413.60;135674;1273;24295;-85
2024/01/26 02:37:19;;;;;;;5.30;3.10;;;;;;;1.72;100.00;99415.62;135643;1273;22547;-85
2024/01/26 02:40:22;;;;;;;7.30;3.40;;;;;;;1.72;100.00;99414.27;135656;1273;25281;-83
2024/01/26 02:43:24;;;;;;;8.30;3.50;;;;;;;1.73;100.00;99414.17;135736;1273;22559;-83
2024/01/26 02:46:27;;;;;;;7.80;3.70;;;;;;;1.73;100.00;99414.84;135624;1274;25913;-84
2024/01/26 02:49:29;;;;;;;7.20;3.90;;;;;;;1.74;100.00;99418.00;135651;1273;22536;-82
2024/01/26 02:52:32;;;;;;;8.30;3.00;;;;;;;1.74;100.00;99420.20;136225;1273;22562;-84
2024/01/26 02:55:34;;;;;;;5.00;3.40;;;;;;;1.74;100.00;99423.34;136083;1273;25101;-83
2024/01/26 02:58:36;;;;;;;7.40;3.60;;;;;;;1.77;100.00;99429.67;135907;1273;25409;-82
2024/01/26 03:01:39;;;;;;;8.90;3.80;;;;;;;1.79;100.00;99432.85;135799;1273;22612;-81
2024/01/26 03:04:41;;;;;;;8.60;3.50;;;;;;;1.81;100.00;99449.95;135612;1270;22532;-84
2024/01/26 03:07:44;;;;;;;10.20;3.90;;;;;;;1.83;100.00;99446.81;135664;1273;22551;-81
2024/01/26 03:10:47;;;;;;;9.40;4.00;;;;;;;1.84;100.00;99454.08;135599;1273;22540;-85
2024/01/26 03:13:49;;;;;;;6.90;3.70;;;;;;;1.84;100.00;99456.15;135691;1273;22543;-84
2024/01/26 03:16:52;;;;;;;6.60;3.60;;;;;;;1.84;100.00;99456.33;135674;1273;22544;-83
2024/01/26 03:19:54;;;;;;;7.70;3.60;;;;;;;1.83;100.00;99451.45;135619;1273;22485;-83
2024/01/26 03:22:57;;;;;;;9.60;3.90;;;;;;;1.81;100.00;99449.30;135681;1273;22483;-84
2024/01/26 03:25:59;;;;;;;7.90;4.00;;;;;;;1.80;100.00;99448.52;135640;1273;22673;-84
2024/01/26 03:29:02;;;;;;;5.70;2.80;;;;;;;1.77;100.00;99452.68;135635;1273;25284;-84
2024/01/26 03:32:04;;;;;;;7.20;3.30;;;;;;;1.77;100.00;99455.23;135684;1273;22551;-83
2024/01/26 03:35:07;;;;;;;8.00;3.70;;;;;;;1.76;100.00;99452.27;135638;1273;22549;-82
2024/01/26 03:38:09;;;;;;;8.20;3.90;;;;;;;3.48;100.00;99455.52;135627;1273;25242;-81
2024/01/26 03:41:12;;;;;;;5.60;3.40;;;;;;;6.15;100.00;99448.46;135621;1273;22542;-83
2024/01/26 03:44:14;;;;;;;6.40;2.90;;;;;;;7.80;100.00;99443.02;135961;1273;24669;-84
2024/01/26 03:47:17;;;;;;;6.40;3.10;;;;;;;9.28;100.00;99444.20;135665;1274;23014;-77
2024/01/26 03:50:19;;;;;;;4.90;2.50;;;;;;;10.01;100.00;99446.04;135578;1274;22536;-82
2024/01/26 03:53:22;;;;;;;4.90;2.90;;;;;;;9.19;100.00;99450.15;135586;1274;22549;-83
2024/01/26 03:56:27;;;;;;;7.00;2.70;;;;;;;6.66;100.00;99451.60;135868;1275;25894;-82
2024/01/26 03:59:29;;;;;;;8.80;3.10;;;;;;;4.80;100.00;99456.80;135837;1275;22994;-84
2024/01/26 04:02:32;;;;;;;5.20;2.80;;;;;;;3.86;100.00;99455.70;135769;1275;22536;-84
2024/01/26 04:05:34;;;;;;;5.20;2.80;;;;;;;3.29;100.00;99452.52;135770;1274;22660;-84
2024/01/26 04:08:37;;;;;;;7.80;2.80;;;;;;;2.91;100.00;99452.98;135723;1275;22582;-83
2024/01/26 04:11:39;;;;;;;6.00;2.90;;;;;;;2.64;100.00;99459.80;135806;1274;22485;-83
2024/01/26 04:14:42;;;;;;;8.30;3.60;;;;;;;2.42;100.00;99459.34;135701;1275;22951;-81
2024/01/26 04:17:44;;;;;;;6.70;3.10;;;;;;;2.25;100.00;99461.83;135472;1275;22551;-81
2024/01/26 04:20:47;;;;;;;9.00;2.90;;;;;;;2.12;100.00;99466.11;135447;1275;22550;-83
2024/01/26 04:23:49;;;;;;;6.50;3.70;;;;;;;2.03;100.00;99467.46;135776;1275;22544;-82
2024/01/26 04:26:52;;;;;;;6.30;2.80;;;;;;;1.95;100.00;99475.11;135725;1275;25310;-84
2024/01/26 04:29:55;;;;;;;7.70;3.40;;;;;;;2.03;100.00;99477.11;135643;1275;22581;-82
2024/01/26 04:32:59;;;;;;;6.50;2.90;;;;;;;2.57;100.00;99473.66;135643;1275;22547;-81
2024/01/26 04:36:01;;;;;;;6.60;2.70;;;;;;;2.52;100.00;99479.12;135676;1275;22657;-82
2024/01/26 04:39:04;;;;;;;7.70;3.20;;;;;;;2.37;100.00;99481.88;135809;1275;22784;-83
2024/01/26 04:42:06;;;;;;;6.80;3.00;;;;;;;3.34;100.00;99481.16;135756;1275;22595;-79
2024/01/26 04:45:09;;;;;;;8.60;3.00;;;;;;;4.14;100.00;99477.54;135566;1273;22524;-80
2024/01/26 04:48:11;;;;;;;6.60;2.80;;;;;;;3.99;100.00;99481.13;135496;1273;22540;-79
2024/01/26 04:51:14;;;;;;;6.90;3.10;;;;;;;3.83;100.00;99483.29;135586;1273;23480;-79
2024/01/26 04:54:17;;;;;;;6.20;3.10;;;;;;;3.98;100.00;99488.98;135444;1273;25395;-80
2024/01/26 04:57:19;;;;;;;4.70;2.80;;;;;;;4.03;100.00;99487.70;135345;1274;22635;-80
2024/01/26 05:00:22;;;;;;;8.50;3.50;;;;;;;3.90;100.00;99486.20;135126;1273;22575;-80
2024/01/26 05:03:25;;;;;;;6.40;3.20;;;;;;;3.49;100.00;99485.00;135155;1273;22570;-78
2024/01/26 05:06:28;;;;;;;9.20;4.80;;;;;;;3.12;100.00;99490.35;135247;1273;22905;-78
2024/01/26 05:09:30;;;;;;;6.20;2.80;;;;;;;2.87;100.00;99494.71;135386;1273;24186;-78
2024/01/26 05:12:33;;;;;;;7.80;3.40;;;;;;;2.74;100.00;99496.99;135150;1273;22543;-78
2024/01/26 05:15:35;;;;;;;5.60;3.60;;;;;;;2.53;100.00;99496.19;135153;1273;22732;-78
2024/01/26 05:18:38;;;;;;;8.40;3.30;;;;;;;2.35;100.00;99503.61;135290;1270;22683;-78
2024/01/26 05:21:41;;;;;;;6.30;3.50;;;;;;;2.20;100.00;99509.29;135251;1273;22559;-77
2024/01/26 05:24:44;;;;;;;4.50;3.20;;;;;;;2.10;100.00;99511.14;135156;1273;22590;-78
2024/01/26 05:27:46;;;;;;;7.40;3.70;;;;;;;2.02;100.00;99518.27;136138;1273;22573;-78
2024/01/26 05:30:49;;;;;;;8.40;3.60;;;;;;;1.98;100.00;99522.66;136137;1273;22582;-78
2024/01/26 05:33:51;;;;;;;8.80;5.10;;;;;;;1.97;100.00;99522.58;135613;1273;22506;-80
2024/01/26 05:36:54;;;;;;;12.80;6.30;;;;;;;1.97;100.00;99523.83;135331;1273;23146;-79
2024/01/26 05:39:56;;;;;;;20.20;9.10;;;;;;;1.99;100.00;99524.56;135322;1274;22540;-80
2024/01/26 05:42:59;;;;;;;22.10;10.90;;;;;;;2.02;100.00;99524.06;135228;1270;22544;-81
2024/01/26 05:46:01;;;;;;;23.20;11.20;;;;;;;2.03;100.00;99520.38;135077;1274;24366;-79
2024/01/26 05:49:04;;;;;;;26.10;10.30;;;;;;;2.06;100.00;99524.29;135064;1274;22552;-81
2024/01/26 05:52:06;;;;;;;20.30;9.50;;;;;;;2.05;100.00;99528.71;135063;1272;22986;-82
2024/01/26 05:55:09;;;;;;;15.40;7.70;;;;;;;2.03;100.00;99528.11;134791;1275;22692;-80
2024/01/26 05:58:11;;;;;;;17.00;8.30;;;;;;;2.02;100.00;99533.02;134915;1260;22564;-80
2024/01/26 06:01:14;;;;;;;13.20;6.90;;;;;;;2.00;100.00;99539.42;130932;1274;5434319;-82
2024/01/26 06:04:18;;;;;;;13.50;7.50;;;;;;;1.99;100.00;99543.30;134952;1275;22573;-81
2024/01/26 06:07:21;;;;;;;14.40;7.70;;;;;;;1.98;100.00;99545.65;136582;1274;23020;-80
2024/01/26 06:10:24;;;;;;;14.70;6.80;;;;;;;1.98;100.00;99546.17;134813;1274;24932;-81
2024/01/26 06:13:27;;;;;;;18.10;8.30;;;;;;;1.97;100.00;99547.85;136804;1274;22523;-81
2024/01/26 06:16:29;;;;;;;15.60;7.60;;;;;;;1.99;100.00;99544.15;134747;1275;22649;-80
2024/01/26 06:19:32;;;;;;;13.30;7.20;;;;;;;2.00;100.00;99540.63;136859;1267;22124;-82
2024/01/26 06:22:35;;;;;;;20.40;8.50;;;;;;;2.01;100.00;99537.77;136651;1275;22572;-81
2024/01/26 06:25:37;;;;;;;17.50;8.40;;;;;;;2.01;100.00;99540.69;136721;1275;22642;-82
2024/01/26 06:28:40;;;;;;;20.30;9.60;;;;;;;2.00;100.00;99541.15;136400;1275;23003;-81
2024/01/26 06:31:42;;;;;;;21.10;10.00;;;;;;;2.02;100.00;99546.27;136452;1275;22582;-81
2024/01/26 06:34:45;;;;;;;17.80;10.50;;;;;;;2.02;100.00;99552.95;136706;1274;22584;-80
2024/01/26 06:37:48;;;;;;;21.50;11.40;;;;;;;2.03;100.00;99552.98;134911;1257;22554;-80
2024/01/26 06:40:51;;;;;;;22.20;12.00;;;;;;;2.03;100.00;99555.52;136509;1275;23299;-82
2024/01/26 06:43:56;;;;;;;24.30;12.60;;;;;;;2.01;100.00;99556.13;136360;1275;22653;-82
2024/01/26 06:46:59;;;;;;;29.70;13.10;;;;;;;2.03;100.00;99561.73;136397;1275;22958;-82
2024/01/26 06:50:01;;;;;;;24.20;13.50;;;;;;;2.03;100.00;99560.52;136275;1275;22947;-80
2024/01/26 06:53:04;;;;;;;31.60;15.80;;;;;;;2.09;100.00;99560.17;135099;1275;22614;-81
2024/01/26 06:56:06;;;;;;;35.40;17.90;;;;;;;2.10;100.00;99558.71;135288;1275;22541;-80
2024/01/26 06:59:09;;;;;;;33.80;19.40;;;;;;;2.12;100.00;99555.39;135223;1274;22545;-82
2024/01/26 07:02:11;;;;;;;35.30;19.30;;;;;;;2.15;100.00;99557.46;136263;1275;22545;-79
2024/01/26 07:05:17;;;;;;;27.70;14.40;;;;;;;2.17;100.00;99565.10;135442;1274;22553;-81
2024/01/26 07:08:20;;;;;;;28.30;14.70;;;;;;;2.16;100.00;99561.77;135241;1275;22549;-82
2024/01/26 07:11:24;;;;;;;33.50;14.20;;;;;;;2.16;100.00;99565.77;136367;1274;22664;-82
2024/01/26 07:14:27;;;;;;;22.30;13.60;;;;;;;2.15;100.00;99557.25;136474;1260;22610;-79
2024/01/26 07:17:30;;;;;;;32.20;18.60;;;;;;;2.19;100.00;99557.33;134849;1275;22973;-81
2024/01/26 07:20:32;;;;;;;46.90;24.00;;;;;;;2.22;100.00;99555.94;134819;1275;24219;-81
2024/01/26 07:23:35;;;;;;;44.60;25.50;;;;;;;2.25;100.00;99561.45;134811;1274;25305;-80
2024/01/26 07:26:38;;;;;;;42.10;22.80;;;;;;;2.26;100.00;99565.96;136668;1274;22568;-80
2024/01/26 07:29:40;;;;;;;48.20;22.40;;;;;;;2.28;100.00;99564.67;136622;1274;22540;-81
2024/01/26 07:32:43;;;;;;;42.30;18.20;;;;;;;2.30;100.00;99571.02;134738;1275;22585;-80
2024/01/26 07:35:45;;;;;;;48.60;17.30;;;;;;;2.32;100.00;99577.45;134914;1274;22922;-80
2024/01/26 07:38:48;;;;;;;39.00;15.40;;;;;;;2.33;100.00;99577.16;134817;1275;22927;-81
2024/01/26 07:41:50;;;;;;;34.00;13.30;;;;;;;2.34;100.00;99575.55;136477;1274;22563;-80
2024/01/26 07:44:53;;;;;;;30.10;14.00;;;;;;;2.37;100.00;99576.05;134885;1273;22551;-80
2024/01/26 07:47:55;;;;;;;33.30;12.70;;;;;;;2.39;100.00;99574.57;135012;1273;22544;-80
2024/01/26 07:50:58;;;;;;;29.80;13.50;;;;;;;2.43;100.00;99575.84;136448;1272;22589;-80
2024/01/26 07:54:02;;;;;;;34.10;17.50;;;;;;;2.42;100.00;99579.73;134822;1273;22539;-79
2024/01/26 07:57:04;;;;;;;28.90;17.70;;;;;;;2.41;100.00;99579.34;134926;1273;22904;-79
2024/01/26 08:00:08;;;;;;;26.00;14.10;;;;;;;2.50;100.00;99576.39;135155;1273;22515;-80
2024/01/26 08:03:11;;;;;;;37.00;18.60;;;;;;;2.56;100.00;99577.75;135351;1273;23454;-80
2024/01/26 08:06:13;;;;;;;31.90;19.10;;;;;;;2.59;100.00;99580.86;134974;1273;22521;-80
2024/01/26 08:09:16;;;;;;;38.80;16.00;;;;;;;2.62;100.00;99580.70;136546;1274;22583;-80
2024/01/26 08:12:20;;;;;;;25.50;13.60;;;;;;;2.66;100.00;99582.80;134914;1273;24223;-80
2024/01/26 08:15:23;;;;;;;27.70;12.50;;;;;;;2.69;100.00;99578.85;134985;1273;22678;-80
2024/01/26 08:18:26;;;;;;;23.70;12.20;;;;;;;2.74;100.00;99577.77;135000;1273;25068;-81
2024/01/26 08:21:28;;;;;;;37.80;19.10;;;;;;;2.83;100.00;99576.85;136280;1273;22562;-81
2024/01/26 08:24:32;;;;;;;21.20;10.10;;;;;;;2.87;100.00;99575.02;136476;1274;22581;-80
2024/01/26 08:27:38;;;;;;;28.50;14.60;;;;;;;2.92;100.00;99566.31;135859;1274;24140;-81
2024/01/26 08:30:43;;;;;;;35.10;16.50;;;;;;;2.91;100.00;99567.33;136089;1273;23066;-78
2024/01/26 08:33:45;;;;;;;26.40;13.00;;;;;;;2.95;100.00;99563.40;135963;1273;22565;-78
2024/01/26 08:36:48;;;;;;;22.40;9.60;;;;;;;3.02;100.00;99562.91;135620;1273;22572;-79
2024/01/26 08:39:50;;;;;;;21.60;9.40;;;;;;;3.01;100.00;99563.38;135157;1273;24146;-78
2024/01/26 08:42:53;;;;;;;31.00;13.80;;;;;;;3.05;100.00;99563.40;135082;1273;23111;-81
2024/01/26 08:45:55;;;;;;;55.20;22.10;;;;;;;3.13;100.00;99566.27;134994;1273;22658;-78
2024/01/26 08:48:58;;;;;;;33.80;11.00;;;;;;;3.17;100.00;99564.43;135007;1273;22662;-80
2024/01/26 08:52:01;;;;;;;87.80;33.30;;;;;;;3.23;100.00;99563.14;135054;1273;22767;-80
2024/01/26 08:55:04;;;;;;;39.70;15.70;;;;;;;3.32;100.00;99560.34;135031;1273;23007;-79
2024/01/26 08:58:07;;;;;;;48.30;17.30;;;;;;;3.38;100.00;99568.93;135220;1274;23066;-80
2024/01/26 09:01:10;;;;;;;86.00;29.90;;;;;;;3.35;100.00;99568.59;134982;1273;22671;-78
2024/01/26 09:04:12;;;;;;;64.10;25.40;;;;;;;3.36;100.00;99565.87;134994;1274;22540;-80
2024/01/26 09:07:17;;;;;;;62.20;22.30;;;;;;;3.41;100.00;99562.05;134868;1274;23684;-77
2024/01/26 09:10:23;;;;;;;64.40;24.20;;;;;;;3.40;100.00;99562.86;134942;1273;25046;-79
2024/01/26 09:13:25;;;;;;;44.30;17.80;;;;;;;3.44;100.00;99560.98;134925;1273;22536;-80
2024/01/26 09:16:28;;;;;;;29.60;10.50;;;;;;;3.52;100.00;99554.86;136689;1259;22518;-79
2024/01/26 09:19:30;;;;;;;29.90;12.40;;;;;;;3.47;100.00;99552.25;134920;1273;22552;-80
2024/01/26 09:22:33;;;;;;;38.80;16.00;;;;;;;3.46;100.00;99550.09;134874;1273;22801;-81
2024/01/26 09:25:36;;;;;;;26.80;11.70;;;;;;;3.52;100.00;99549.21;134806;1273;22568;-79
2024/01/26 09:28:38;;;;;;;21.10;11.70;;;;;;;3.56;100.00;99540.42;134923;1273;24271;-80
2024/01/26 09:31:41;;;;;;;23.70;8.30;;;;;;;3.60;100.00;99546.86;136646;1272;22517;-79
2024/01/26 09:34:44;;;;;;;21.10;9.30;;;;;;;3.58;100.00;99549.67;136407;1273;22605;-79
2024/01/26 09:37:46;;;;;;;27.00;8.90;;;;;;;3.57;100.00;99549.11;135052;1251;22536;-80
2024/01/26 09:40:49;;;;;;;22.10;7.30;;;;;;;3.62;100.00;99544.88;134999;1273;23774;-81
2024/01/26 09:43:53;;;;;;;12.90;6.50;;;;;;;3.72;100.00;99541.95;136529;1273;24196;-81
2024/01/26 09:46:56;;;;;;;15.90;7.90;;;;;;;3.78;100.00;99542.97;136469;1275;22614;-80
2024/01/26 09:49:59;;;;;;;17.10;6.50;;;;;;;3.82;100.00;99538.51;136674;1275;25018;-80
2024/01/26 09:53:02;;;;;;;17.60;7.30;;;;;;;3.81;100.00;99533.95;136505;1275;22669;-80
2024/01/26 09:56:05;;;;;;;23.80;8.00;;;;;;;3.75;100.00;99531.10;136683;1275;23112;-78
2024/01/26 09:59:08;;;;;;;22.40;7.70;;;;;;;3.72;100.00;99533.55;135065;1275;22630;-81
2024/01/26 10:02:12;;;;;;;20.70;8.70;;;;;;;3.82;100.00;99528.18;136531;1274;22565;-79
2024/01/26 10:05:14;;;;;;;24.20;8.40;;;;;;;3.94;100.00;99523.92;135239;1275;22529;-79
2024/01/26 10:08:16;;;;;;;17.50;7.00;;;;;;;4.03;100.00;99520.59;135291;1275;22489;-79
2024/01/26 10:11:19;;;;;;;19.40;8.70;;;;;;;4.17;100.00;99522.78;135247;1275;22563;-79
2024/01/26 10:14:22;;;;;;;25.30;9.90;;;;;;;4.25;100.00;99524.89;135166;1274;22774;-80
2024/01/26 10:17:25;;;;;;;31.30;11.90;;;;;;;4.22;100.00;99519.92;136379;1274;22557;-79
2024/01/26 10:20:28;;;;;;;23.10;9.70;;;;;;;4.20;100.00;99519.00;135127;1274;23131;-79
2024/01/26 10:23:31;;;;;;;20.60;8.20;;;;;;;4.25;100.00;99512.86;134955;1274;22550;-78
2024/01/26 10:26:33;;;;;;;27.40;9.40;;;;;;;4.25;100.00;99507.48;135032;1274;22656;-82
2024/01/26 10:29:36;;;;;;;23.60;9.40;;;;;;;4.29;100.00;99502.20;136509;1274;23603;-79
2024/01/26 10:32:39;;;;;;;25.50;10.30;;;;;;;4.35;100.00;99503.20;134828;1274;22547;-80
2024/01/26 10:35:41;;;;;;;26.80;11.70;;;;;;;4.43;100.00;99504.45;134785;1275;22482;-79
2024/01/26 10:38:43;;;;;;;36.00;12.10;;;;;;;4.47;100.00;99499.64;134944;1274;22582;-80
2024/01/26 10:41:46;;;;;;;23.80;11.20;;;;;;;4.51;100.00;99495.30;134895;1275;22685;-79
2024/01/26 10:44:49;;;;;;;34.20;13.50;;;;;;;4.59;100.00;99493.94;134957;1273;23019;-79
2024/01/26 10:47:52;;;;;;;32.70;13.20;;;;;;;4.70;100.00;99493.09;134932;1274;23250;-81
2024/01/26 10:50:54;;;;;;;25.70;11.00;;;;;;;4.76;100.00;99484.54;135033;1273;25829;-79
2024/01/26 10:53:57;;;;;;;20.50;9.30;;;;;;;4.73;100.00;99484.44;135089;1274;22548;-81
2024/01/26 10:56:59;;;;;;;26.60;10.30;;;;;;;4.61;100.00;99483.02;135146;1274;23014;-80
2024/01/26 11:00:04;;;;;;;19.70;10.10;;;;;;;4.58;100.00;99473.73;135244;1273;22596;-82
2024/01/26 11:03:07;;;;;;;15.70;8.00;;;;;;;4.59;100.00;99467.94;136660;1272;22543;-79
2024/01/26 11:06:09;;;;;;;19.70;8.30;;;;;;;4.51;100.00;99465.48;136643;1273;22979;-80
2024/01/26 11:09:15;;;;;;;20.50;9.20;;;;;;;4.43;100.00;99462.91;136518;1274;23455;-82
2024/01/26 11:12:17;;;;;;;17.50;7.30;;;;;;;4.38;100.00;99454.93;136659;1273;22643;-80
2024/01/26 11:15:19;;;;;;;19.70;9.80;;;;;;;4.33;100.00;99458.60;136671;1274;25042;-79
2024/01/26 11:18:22;;;;;;;24.90;12.00;;;;;;;4.28;100.00;99450.61;135107;1274;22517;-81
2024/01/26 11:21:24;;;;;;;60.50;24.80;;;;;;;4.31;100.00;99444.91;134848;1273;22579;-80
2024/01/26 11:24:27;;;;;;;25.60;11.80;;;;;;;4.35;100.00;99445.64;134907;1273;23076;-80
2024/01/26 11:27:29;;;;;;;37.90;16.40;;;;;;;4.33;100.00;99446.55;134810;1273;22667;-80
2024/01/26 11:30:36;;;;;;;19.20;7.70;;;;;;;4.28;100.00;99445.80;136931;1273;22083;-79
2024/01/26 11:33:41;;;;;;;28.80;12.50;;;;;;;4.23;100.00;99443.50;136976;1263;24209;-79
2024/01/26 11:36:44;;;;;;;26.20;11.90;;;;;;;4.20;100.00;99438.17;136902;1273;22565;-79
2024/01/26 11:39:49;;;;;;;19.50;8.90;;;;;;;4.17;100.00;99439.06;136833;1272;25105;-79
2024/01/26 11:42:55;;;;;;;16.50;8.50;;;;;;;4.22;100.00;99434.66;136814;1274;22568;-78
2024/01/26 11:45:58;;;;;;;19.30;8.10;;;;;;;4.26;100.00;99433.83;134904;1273;22559;-82
2024/01/26 11:49:03;;;;;;;24.80;9.90;;;;;;;4.31;100.00;99429.58;136736;1275;22569;-79
2024/01/26 11:52:05;;;;;;;;;;;;;;;4.38;100.00;99430.10;136606;1274;22942;-79
2024/01/26 11:55:08;;;;;;;32.70;14.70;;;;;;;4.40;100.00;99428.28;136646;1272;22570;-78
2024/01/26 11:58:11;;;;;;;26.20;12.40;;;;;;;4.44;100.00;99419.34;136508;1274;22567;-80
2024/01/26 12:01:17;;;;;;;59.00;22.10;;;;;;;4.53;100.00;99413.50;136178;1263;22903;-81
2024/01/26 12:04:22;;;;;;;32.80;13.90;;;;;;;4.59;100.00;99396.55;136753;1274;23194;-80
2024/01/26 12:07:27;;;;;;;32.30;12.70;;;;;;;4.64;100.00;99393.86;136434;1275;22707;-81
2024/01/26 12:10:30;;;;;;;18.20;8.10;;;;;;;4.73;100.00;99396.83;136595;1274;22288;-82
2024/01/26 12:13:32;;;;;;;19.90;7.50;;;;;;;4.78;100.00;99393.11;136478;1275;22638;-80
2024/01/26 12:16:35;;;;;;;17.90;7.40;;;;;;;4.78;100.00;99393.26;136577;1275;23081;-80
2024/01/26 12:19:38;;;;;;;22.10;8.10;;;;;;;4.76;100.00;99386.97;136534;1274;24254;-81
2024/01/26 12:22:40;;;;;;;26.30;11.40;;;;;;;4.80;100.00;99376.63;136699;1275;22588;-80
2024/01/26 12:25:44;;;;;;;25.60;9.40;;;;;;;4.84;100.00;99375.09;136757;1275;22569;-80
2024/01/26 12:28:46;;;;;;;17.20;8.10;;;;;;;4.82;100.00;99373.23;136660;1275;23720;-81
2024/01/26 12:31:49;;;;;;;20.80;9.10;;;;;;;4.80;100.00;99371.79;136487;1275;22572;-81
2024/01/26 12:34:51;;;;;;;24.30;10.40;;;;;;;4.82;100.00;99369.11;136543;1275;22539;-81
2024/01/26 12:37:54;;;;;;;23.00;9.50;;;;;;;4.81;100.00;99361.84;136773;1275;22572;-80
2024/01/26 12:40:57;;;;;;;45.60;11.00;;;;;;;4.84;100.00;99357.11;136631;1274;22575;-81
2024/01/26 12:43:59;;;;;;;22.90;9.20;;;;;;;4.86;100.00;99355.33;136451;1274;22556;-81
2024/01/26 12:47:03;;;;;;;23.40;10.10;;;;;;;4.87;100.00;99351.05;136798;1271;25396;-80
2024/01/26 12:50:06;;;;;;;33.60;12.30;;;;;;;4.88;100.00;99347.98;136621;1274;22522;-81
2024/01/26 12:53:10;;;;;;;22.80;9.70;;;;;;;4.93;100.00;99349.73;136757;1274;22537;-80
2024/01/26 12:56:13;;;;;;;36.20;12.50;;;;;;;4.96;100.00;99342.48;136630;1273;22577;-80
2024/01/26 12:59:15;;;;;;;19.60;9.50;;;;;;;4.95;100.00;99335.52;136670;1274;22885;-79
2024/01/26 13:02:18;;;;;;;31.80;9.00;;;;;;;4.96;100.00;99328.14;135179;1273;22485;-80
2024/01/26 13:05:21;;;;;;;22.90;9.60;;;;;;;4.99;100.00;99319.83;136370;1273;22601;-80
2024/01/26 13:08:24;;;;;;;16.70;7.80;;;;;;;5.02;100.00;99314.61;134896;1273;22603;-81
2024/01/26 13:11:27;;;;;;;20.00;7.50;;;;;;;5.08;100.00;99312.77;134872;1273;25363;-81
2024/01/26 13:14:29;;;;;;;26.90;10.20;;;;;;;5.18;100.00;99305.23;134793;1273;26223;-79
2024/01/26 13:17:32;;;;;;;28.20;10.60;;;;;;;5.17;100.00;99306.77;134790;1267;22557;-80
2024/01/26 13:20:34;;;;;;;28.20;8.80;;;;;;;5.15;100.00;99295.64;134650;1273;22962;-84
2024/01/26 13:23:37;;;;;;;19.00;8.10;;;;;;;5.13;100.00;99296.23;137005;1263;22660;-81
2024/01/26 13:26:39;;;;;;;19.60;9.30;;;;;;;5.14;100.00;99293.52;137073;1274;22633;-80
2024/01/26 13:29:42;;;;;;;19.10;8.70;;;;;;;5.14;100.00;99287.16;137130;1273;23111;-81
2024/01/26 13:32:47;;;;;;;23.50;9.50;;;;;;;5.16;100.00;99279.65;137119;1270;22548;-81
2024/01/26 13:35:49;;;;;;;17.30;6.30;;;;;;;5.25;100.00;99268.46;137132;1273;22566;-82
2024/01/26 13:38:52;;;;;;;18.90;7.00;;;;;;;5.29;100.00;99265.67;136505;1274;22579;-85
2024/01/26 13:41:54;;;;;;;13.80;5.40;;;;;;;5.33;100.00;99253.92;136462;1273;23196;-84
2024/01/26 13:44:56;;;;;;;14.20;5.60;;;;;;;5.32;100.00;99249.08;136360;1274;22608;-83
2024/01/26 13:48:04;;;;;;;15.00;6.10;;;;;;;5.51;100.00;99241.49;136653;1275;22634;-81
2024/01/26 13:51:07;;;;;;;22.50;5.90;;;;;;;6.07;100.00;99238.45;136890;1275;26050;-82
2024/01/26 13:54:14;;;;;;;14.20;5.90;;;;;;;6.01;100.00;99233.75;137173;1275;22527;-81
2024/01/26 13:57:17;;;;;;;19.00;6.50;;;;;;;5.98;100.00;99227.23;136925;1275;22549;-80
2024/01/26 14:00:20;;;;;;;18.30;7.10;;;;;;;5.98;100.00;99216.52;135266;1274;22655;-79